sensor_id;sensor_type;location;lat;lon;timestamp;pressure;altitude;pressure_sealevel;temperature;humidity
41078;BME280;26823;42.662;23.352;2023-05-13T00:00:38;95188.31;;;8.20;75.08
41078;BME280;26823;42.662;23.352;2023-05-13T00:03:04;95172.69;;;8.17;74.43
41078;BME280;26823;42.662;23.352;2023-05-13T00:05:29;95169.81;;;8.29;72.52
41078;BME280;26823;42.662;23.352;2023-05-13T00:07:55;95168.53;;;8.37;69.12
41078;BME280;26823;42.662;23.352;2023-05-13T00:10:20;95178.56;;;8.41;67.29
41078;BME280;26823;42.662;23.352;2023-05-13T00:12:46;95173.03;;;8.53;65.78
41078;BME280;26823;42.662;23.352;2023-05-13T00:15:12;95173.81;;;8.54;68.43
41078;BME280;26823;42.662;23.352;2023-05-13T00:17:37;95188.97;;;8.60;65.47
41078;BME280;26823;42.662;23.352;2023-05-13T00:20:10;95182.06;;;8.69;64.25
41078;BME280;26823;42.662;23.352;2023-05-13T00:22:35;95184.38;;;8.55;67.58
41078;BME280;26823;42.662;23.352;2023-05-13T00:25:01;95183.50;;;8.49;66.17
41078;BME280;26823;42.662;23.352;2023-05-13T00:27:26;95189.09;;;8.43;65.86
41078;BME280;26823;42.662;23.352;2023-05-13T00:29:52;95209.22;;;8.62;66.40
41078;BME280;26823;42.662;23.352;2023-05-13T00:32:17;95208.00;;;8.75;65.80
41078;BME280;26823;42.662;23.352;2023-05-13T00:34:42;95213.19;;;8.82;63.94
41078;BME280;26823;42.662;23.352;2023-05-13T00:37:08;95219.91;;;8.79;65.15
41078;BME280;26823;42.662;23.352;2023-05-13T00:39:34;95208.63;;;8.88;64.58
41078;BME280;26823;42.662;23.352;2023-05-13T00:42:00;95196.91;;;8.72;64.56
41078;BME280;26823;42.662;23.352;2023-05-13T00:44:27;95203.25;;;8.55;66.79
41078;BME280;26823;42.662;23.352;2023-05-13T00:46:53;95208.38;;;8.57;66.24
41078;BME280;26823;42.662;23.352;2023-05-13T00:49:18;95198.66;;;8.56;66.87
41078;BME280;26823;42.662;23.352;2023-05-13T00:51:44;95205.50;;;8.41;68.48
41078;BME280;26823;42.662;23.352;2023-05-13T00:54:09;95206.59;;;8.40;67.98
41078;BME280;26823;42.662;23.352;2023-05-13T00:56:37;95200.16;;;8.74;71.25
41078;BME280;26823;42.662;23.352;2023-05-13T00:59:02;95201.47;;;8.71;66.97
41078;BME280;26823;42.662;23.352;2023-05-13T01:01:47;95202.53;;;8.70;69.66
41078;BME280;26823;42.662;23.352;2023-05-13T01:07:17;95197.56;;;8.52;78.61
41078;BME280;26823;42.662;23.352;2023-05-13T01:10:13;95212.94;;;8.29;82.17
41078;BME280;26823;42.662;23.352;2023-05-13T01:12:41;95204.34;;;8.32;82.13
41078;BME280;26823;42.662;23.352;2023-05-13T01:15:12;95203.88;;;8.40;80.77
41078;BME280;26823;42.662;23.352;2023-05-13T01:20:29;95208.06;;;8.53;72.03
41078;BME280;26823;42.662;23.352;2023-05-13T01:22:55;95199.94;;;8.48;70.41
41078;BME280;26823;42.662;23.352;2023-05-13T01:25:22;95225.00;;;8.48;67.60
41078;BME280;26823;42.662;23.352;2023-05-13T01:27:47;95226.56;;;8.44;67.65
41078;BME280;26823;42.662;23.352;2023-05-13T01:30:13;95223.81;;;8.61;66.19
41078;BME280;26823;42.662;23.352;2023-05-13T01:32:39;95223.63;;;8.46;67.35
41078;BME280;26823;42.662;23.352;2023-05-13T01:35:06;95241.19;;;8.48;63.09
41078;BME280;26823;42.662;23.352;2023-05-13T01:37:32;95214.25;;;8.26;62.88
41078;BME280;26823;42.662;23.352;2023-05-13T01:39:58;95222.09;;;8.28;62.48
41078;BME280;26823;42.662;23.352;2023-05-13T01:42:24;95231.84;;;8.34;62.53
41078;BME280;26823;42.662;23.352;2023-05-13T01:44:52;95221.44;;;8.43;62.32
41078;BME280;26823;42.662;23.352;2023-05-13T01:47:18;95216.19;;;8.31;62.11
41078;BME280;26823;42.662;23.352;2023-05-13T01:49:43;95220.19;;;8.51;62.50
41078;BME280;26823;42.662;23.352;2023-05-13T01:52:08;95228.31;;;8.56;63.43
41078;BME280;26823;42.662;23.352;2023-05-13T01:54:34;95223.22;;;8.59;63.85
41078;BME280;26823;42.662;23.352;2023-05-13T01:56:59;95206.88;;;8.44;63.24
41078;BME280;26823;42.662;23.352;2023-05-13T01:59:25;95213.69;;;8.24;63.82
41078;BME280;26823;42.662;23.352;2023-05-13T02:01:50;95213.63;;;8.19;65.28
41078;BME280;26823;42.662;23.352;2023-05-13T02:04:16;95214.75;;;8.23;65.94
41078;BME280;26823;42.662;23.352;2023-05-13T02:06:41;95202.63;;;8.48;67.71
41078;BME280;26823;42.662;23.352;2023-05-13T02:09:06;95214.03;;;8.33;67.78
41078;BME280;26823;42.662;23.352;2023-05-13T02:11:32;95209.66;;;8.27;70.02
41078;BME280;26823;42.662;23.352;2023-05-13T02:13:58;95228.00;;;8.52;70.29
41078;BME280;26823;42.662;23.352;2023-05-13T02:16:23;95212.78;;;8.41;73.82
41078;BME280;26823;42.662;23.352;2023-05-13T02:18:49;95216.69;;;8.28;76.86
41078;BME280;26823;42.662;23.352;2023-05-13T02:21:14;95219.03;;;8.19;78.66
41078;BME280;26823;42.662;23.352;2023-05-13T02:23:39;95216.94;;;8.26;79.40
41078;BME280;26823;42.662;23.352;2023-05-13T02:26:05;95223.63;;;8.19;80.12
41078;BME280;26823;42.662;23.352;2023-05-13T02:28:30;95188.16;;;8.05;78.49
41078;BME280;26823;42.662;23.352;2023-05-13T02:30:56;95227.88;;;8.42;77.86
41078;BME280;26823;42.662;23.352;2023-05-13T02:33:21;95235.13;;;8.36;78.23
41078;BME280;26823;42.662;23.352;2023-05-13T02:35:47;95228.44;;;8.44;78.64
41078;BME280;26823;42.662;23.352;2023-05-13T02:38:12;95242.50;;;8.46;77.65
41078;BME280;26823;42.662;23.352;2023-05-13T02:40:38;95235.66;;;8.38;76.87
41078;BME280;26823;42.662;23.352;2023-05-13T02:43:03;95237.03;;;8.41;75.43
41078;BME280;26823;42.662;23.352;2023-05-13T02:45:29;95217.38;;;8.40;75.63
41078;BME280;26823;42.662;23.352;2023-05-13T02:47:55;95229.03;;;8.46;74.06
41078;BME280;26823;42.662;23.352;2023-05-13T02:50:21;95184.53;;;7.94;74.01
41078;BME280;26823;42.662;23.352;2023-05-13T02:52:47;95232.13;;;8.32;71.17
41078;BME280;26823;42.662;23.352;2023-05-13T02:55:18;95234.41;;;8.46;71.76
41078;BME280;26823;42.662;23.352;2023-05-13T02:57:43;95232.28;;;8.48;69.57
41078;BME280;26823;42.662;23.352;2023-05-13T03:00:09;95220.44;;;8.27;71.07
41078;BME280;26823;42.662;23.352;2023-05-13T03:02:36;95234.59;;;8.39;74.19
41078;BME280;26823;42.662;23.352;2023-05-13T03:05:01;95244.56;;;8.39;71.72
41078;BME280;26823;42.662;23.352;2023-05-13T03:07:26;95262.88;;;8.37;74.89
41078;BME280;26823;42.662;23.352;2023-05-13T03:09:52;95253.41;;;8.34;72.79
41078;BME280;26823;42.662;23.352;2023-05-13T03:12:17;95265.06;;;8.40;74.59
41078;BME280;26823;42.662;23.352;2023-05-13T03:14:43;95265.13;;;8.45;73.90
41078;BME280;26823;42.662;23.352;2023-05-13T03:17:09;95269.63;;;8.39;73.83
41078;BME280;26823;42.662;23.352;2023-05-13T03:19:36;95265.69;;;8.47;75.06
41078;BME280;26823;42.662;23.352;2023-05-13T03:22:03;95265.94;;;8.45;77.67
41078;BME280;26823;42.662;23.352;2023-05-13T03:24:28;95263.00;;;8.47;77.61
41078;BME280;26823;42.662;23.352;2023-05-13T03:26:55;95258.09;;;8.44;75.37
41078;BME280;26823;42.662;23.352;2023-05-13T03:29:20;95257.47;;;8.37;76.87
41078;BME280;26823;42.662;23.352;2023-05-13T03:31:46;95267.00;;;8.44;78.05
41078;BME280;26823;42.662;23.352;2023-05-13T03:34:11;95267.44;;;8.58;78.45
41078;BME280;26823;42.662;23.352;2023-05-13T03:36:36;95268.53;;;8.62;78.75
41078;BME280;26823;42.662;23.352;2023-05-13T03:39:02;95274.09;;;8.51;77.81
41078;BME280;26823;42.662;23.352;2023-05-13T03:41:27;95288.81;;;8.43;78.49
41078;BME280;26823;42.662;23.352;2023-05-13T03:43:53;95276.66;;;8.40;79.25
41078;BME280;26823;42.662;23.352;2023-05-13T03:46:19;95281.38;;;8.28;79.04
41078;BME280;26823;42.662;23.352;2023-05-13T03:48:45;95286.06;;;8.38;77.80
41078;BME280;26823;42.662;23.352;2023-05-13T03:51:10;95283.00;;;8.29;78.82
41078;BME280;26823;42.662;23.352;2023-05-13T03:53:36;95285.25;;;8.37;78.20
41078;BME280;26823;42.662;23.352;2023-05-13T03:56:01;95277.03;;;8.27;77.97
41078;BME280;26823;42.662;23.352;2023-05-13T03:58:26;95294.00;;;8.22;78.26
41078;BME280;26823;42.662;23.352;2023-05-13T04:00:52;95281.69;;;8.31;78.34
41078;BME280;26823;42.662;23.352;2023-05-13T04:03:17;95302.44;;;8.53;79.20
41078;BME280;26823;42.662;23.352;2023-05-13T04:05:46;95301.41;;;8.59;79.92
41078;BME280;26823;42.662;23.352;2023-05-13T04:08:12;95299.00;;;8.58;78.96
41078;BME280;26823;42.662;23.352;2023-05-13T04:10:37;95305.03;;;8.70;79.93
41078;BME280;26823;42.662;23.352;2023-05-13T04:13:03;95310.13;;;8.67;79.81
41078;BME280;26823;42.662;23.352;2023-05-13T04:15:29;95307.72;;;8.70;79.00
41078;BME280;26823;42.662;23.352;2023-05-13T04:17:56;95314.25;;;8.74;79.22
41078;BME280;26823;42.662;23.352;2023-05-13T04:20:22;95312.72;;;8.84;80.48
41078;BME280;26823;42.662;23.352;2023-05-13T04:22:47;95316.34;;;8.94;79.26
41078;BME280;26823;42.662;23.352;2023-05-13T04:25:12;95310.41;;;8.70;80.07
41078;BME280;26823;42.662;23.352;2023-05-13T04:27:38;95323.00;;;8.87;79.79
41078;BME280;26823;42.662;23.352;2023-05-13T04:30:04;95310.31;;;8.87;79.44
41078;BME280;26823;42.662;23.352;2023-05-13T04:32:30;95317.44;;;8.98;79.05
41078;BME280;26823;42.662;23.352;2023-05-13T04:34:55;95296.28;;;8.58;81.01
41078;BME280;26823;42.662;23.352;2023-05-13T04:37:20;95324.38;;;8.62;81.50
41078;BME280;26823;42.662;23.352;2023-05-13T04:39:46;95323.63;;;8.67;80.76
41078;BME280;26823;42.662;23.352;2023-05-13T04:42:13;95343.59;;;8.98;79.45
41078;BME280;26823;42.662;23.352;2023-05-13T04:44:38;95337.09;;;8.94;80.12
41078;BME280;26823;42.662;23.352;2023-05-13T04:47:04;95328.69;;;8.90;77.30
41078;BME280;26823;42.662;23.352;2023-05-13T04:49:29;95340.34;;;8.96;77.46
41078;BME280;26823;42.662;23.352;2023-05-13T04:51:55;95340.44;;;9.06;74.62
41078;BME280;26823;42.662;23.352;2023-05-13T04:54:21;95334.03;;;8.85;71.68
41078;BME280;26823;42.662;23.352;2023-05-13T04:56:47;95340.69;;;8.50;72.80
41078;BME280;26823;42.662;23.352;2023-05-13T04:59:12;95328.81;;;8.51;72.68
41078;BME280;26823;42.662;23.352;2023-05-13T05:01:38;95325.91;;;8.80;72.83
41078;BME280;26823;42.662;23.352;2023-05-13T05:04:07;95330.19;;;9.03;71.37
41078;BME280;26823;42.662;23.352;2023-05-13T05:06:32;95322.16;;;9.13;71.40
41078;BME280;26823;42.662;23.352;2023-05-13T05:08:58;95314.16;;;9.24;72.95
41078;BME280;26823;42.662;23.352;2023-05-13T05:11:23;95326.28;;;9.21;73.20
41078;BME280;26823;42.662;23.352;2023-05-13T05:13:49;95322.19;;;9.51;70.82
41078;BME280;26823;42.662;23.352;2023-05-13T05:16:14;95335.84;;;9.72;70.87
41078;BME280;26823;42.662;23.352;2023-05-13T05:18:40;95327.06;;;9.97;70.73
41078;BME280;26823;42.662;23.352;2023-05-13T05:21:10;95325.38;;;9.86;71.63
41078;BME280;26823;42.662;23.352;2023-05-13T05:23:36;95327.03;;;9.92;69.09
41078;BME280;26823;42.662;23.352;2023-05-13T05:26:01;95350.97;;;9.73;68.91
41078;BME280;26823;42.662;23.352;2023-05-13T05:28:28;95335.16;;;9.92;70.20
41078;BME280;26823;42.662;23.352;2023-05-13T05:30:53;95343.31;;;10.02;69.46
41078;BME280;26823;42.662;23.352;2023-05-13T05:33:19;95300.88;;;10.03;69.43
41078;BME280;26823;42.662;23.352;2023-05-13T05:35:45;95326.41;;;10.27;69.25
41078;BME280;26823;42.662;23.352;2023-05-13T05:38:11;95340.81;;;10.43;68.86
41078;BME280;26823;42.662;23.352;2023-05-13T05:40:42;95340.66;;;10.76;67.47
41078;BME280;26823;42.662;23.352;2023-05-13T05:43:08;95340.06;;;10.58;66.81
41078;BME280;26823;42.662;23.352;2023-05-13T05:45:36;95343.63;;;10.69;66.28
41078;BME280;26823;42.662;23.352;2023-05-13T05:48:01;95338.50;;;10.78;64.80
41078;BME280;26823;42.662;23.352;2023-05-13T05:50:27;95327.94;;;10.76;67.14
41078;BME280;26823;42.662;23.352;2023-05-13T05:52:53;95337.19;;;10.91;66.83
41078;BME280;26823;42.662;23.352;2023-05-13T05:55:19;95316.56;;;10.59;69.16
41078;BME280;26823;42.662;23.352;2023-05-13T05:57:49;95327.13;;;10.76;66.50
41078;BME280;26823;42.662;23.352;2023-05-13T06:00:28;95343.41;;;11.07;65.89
41078;BME280;26823;42.662;23.352;2023-05-13T06:02:54;95346.69;;;11.04;64.93
41078;BME280;26823;42.662;23.352;2023-05-13T06:05:21;95334.47;;;10.91;67.53
41078;BME280;26823;42.662;23.352;2023-05-13T06:07:46;95332.31;;;10.98;69.92
41078;BME280;26823;42.662;23.352;2023-05-13T06:10:12;95353.22;;;11.34;66.95
41078;BME280;26823;42.662;23.352;2023-05-13T06:12:37;95348.03;;;11.32;64.05
41078;BME280;26823;42.662;23.352;2023-05-13T06:15:06;95342.03;;;10.89;65.47
41078;BME280;26823;42.662;23.352;2023-05-13T06:17:40;95355.06;;;11.07;67.09
41078;BME280;26823;42.662;23.352;2023-05-13T06:20:06;95353.47;;;11.22;65.37
41078;BME280;26823;42.662;23.352;2023-05-13T06:22:31;95344.53;;;11.26;66.19
41078;BME280;26823;42.662;23.352;2023-05-13T06:24:57;95348.59;;;11.60;64.72
41078;BME280;26823;42.662;23.352;2023-05-13T06:27:23;95348.84;;;11.69;64.80
41078;BME280;26823;42.662;23.352;2023-05-13T06:29:48;95351.00;;;11.87;64.83
41078;BME280;26823;42.662;23.352;2023-05-13T06:32:13;95365.66;;;11.97;65.52
41078;BME280;26823;42.662;23.352;2023-05-13T06:34:41;95358.34;;;11.71;66.25
41078;BME280;26823;42.662;23.352;2023-05-13T06:37:13;95352.91;;;11.92;64.15
41078;BME280;26823;42.662;23.352;2023-05-13T06:39:39;95365.91;;;12.11;65.15
41078;BME280;26823;42.662;23.352;2023-05-13T06:42:05;95359.94;;;12.14;64.75
41078;BME280;26823;42.662;23.352;2023-05-13T06:44:30;95368.03;;;12.29;63.20
41078;BME280;26823;42.662;23.352;2023-05-13T06:46:56;95361.28;;;11.90;63.95
41078;BME280;26823;42.662;23.352;2023-05-13T06:49:21;95355.59;;;12.13;62.31
41078;BME280;26823;42.662;23.352;2023-05-13T06:51:49;95351.56;;;11.95;62.33
41078;BME280;26823;42.662;23.352;2023-05-13T06:54:14;95350.22;;;11.71;58.09
41078;BME280;26823;42.662;23.352;2023-05-13T06:56:40;95351.28;;;11.65;55.61
41078;BME280;26823;42.662;23.352;2023-05-13T06:59:06;95351.84;;;11.57;55.58
41078;BME280;26823;42.662;23.352;2023-05-13T07:01:31;95362.66;;;11.83;54.45
41078;BME280;26823;42.662;23.352;2023-05-13T07:03:57;95367.53;;;12.12;54.69
41078;BME280;26823;42.662;23.352;2023-05-13T07:06:22;95373.41;;;12.45;55.02
41078;BME280;26823;42.662;23.352;2023-05-13T07:08:48;95363.69;;;12.33;56.96
41078;BME280;26823;42.662;23.352;2023-05-13T07:11:13;95369.28;;;12.57;56.03
41078;BME280;26823;42.662;23.352;2023-05-13T07:13:38;95367.97;;;12.45;55.62
41078;BME280;26823;42.662;23.352;2023-05-13T07:16:04;95368.06;;;12.24;54.43
41078;BME280;26823;42.662;23.352;2023-05-13T07:18:29;95373.75;;;12.12;54.87
41078;BME280;26823;42.662;23.352;2023-05-13T07:20:55;95381.38;;;12.00;54.24
41078;BME280;26823;42.662;23.352;2023-05-13T07:23:21;95385.19;;;11.99;53.69
41078;BME280;26823;42.662;23.352;2023-05-13T07:25:47;95387.59;;;11.85;55.52
41078;BME280;26823;42.662;23.352;2023-05-13T07:28:14;95392.75;;;11.76;53.83
41078;BME280;26823;42.662;23.352;2023-05-13T07:30:40;95391.69;;;11.67;54.00
41078;BME280;26823;42.662;23.352;2023-05-13T07:33:06;95389.50;;;11.74;54.63
41078;BME280;26823;42.662;23.352;2023-05-13T07:35:31;95384.34;;;11.93;57.38
41078;BME280;26823;42.662;23.352;2023-05-13T07:37:56;95387.00;;;12.34;54.46
41078;BME280;26823;42.662;23.352;2023-05-13T07:40:22;95382.84;;;12.63;51.49
41078;BME280;26823;42.662;23.352;2023-05-13T07:42:47;95373.47;;;12.29;50.66
41078;BME280;26823;42.662;23.352;2023-05-13T07:45:13;95386.47;;;12.32;51.26
41078;BME280;26823;42.662;23.352;2023-05-13T07:47:38;95389.94;;;12.48;52.33
41078;BME280;26823;42.662;23.352;2023-05-13T07:50:04;95390.41;;;12.71;53.12
41078;BME280;26823;42.662;23.352;2023-05-13T07:52:31;95381.38;;;12.86;53.23
41078;BME280;26823;42.662;23.352;2023-05-13T07:54:56;95394.19;;;12.75;50.99
41078;BME280;26823;42.662;23.352;2023-05-13T07:57:21;95385.75;;;12.77;52.99
41078;BME280;26823;42.662;23.352;2023-05-13T07:59:47;95382.16;;;12.92;54.10
41078;BME280;26823;42.662;23.352;2023-05-13T08:02:12;95374.41;;;13.19;52.01
41078;BME280;26823;42.662;23.352;2023-05-13T08:04:38;95374.66;;;13.63;50.71
41078;BME280;26823;42.662;23.352;2023-05-13T08:07:04;95376.09;;;13.55;51.48
41078;BME280;26823;42.662;23.352;2023-05-13T08:09:29;95378.72;;;13.70;52.55
41078;BME280;26823;42.662;23.352;2023-05-13T08:11:55;95374.09;;;14.25;50.94
41078;BME280;26823;42.662;23.352;2023-05-13T08:14:21;95364.28;;;14.29;50.57
41078;BME280;26823;42.662;23.352;2023-05-13T08:16:54;95368.25;;;14.12;50.67
41078;BME280;26823;42.662;23.352;2023-05-13T08:19:20;95370.81;;;14.03;52.61
41078;BME280;26823;42.662;23.352;2023-05-13T08:21:59;95364.91;;;14.21;51.31
41078;BME280;26823;42.662;23.352;2023-05-13T08:24:25;95372.13;;;15.03;55.20
41078;BME280;26823;42.662;23.352;2023-05-13T08:26:50;95373.03;;;15.37;50.15
41078;BME280;26823;42.662;23.352;2023-05-13T08:29:15;95364.47;;;15.43;52.36
41078;BME280;26823;42.662;23.352;2023-05-13T08:31:41;95374.50;;;15.29;51.37
41078;BME280;26823;42.662;23.352;2023-05-13T08:34:06;95360.66;;;15.25;51.16
41078;BME280;26823;42.662;23.352;2023-05-13T08:36:32;95370.94;;;15.28;49.99
41078;BME280;26823;42.662;23.352;2023-05-13T08:38:58;95360.34;;;15.46;50.75
41078;BME280;26823;42.662;23.352;2023-05-13T08:41:23;95329.59;;;14.15;50.31
41078;BME280;26823;42.662;23.352;2023-05-13T08:43:50;95343.97;;;14.70;52.26
41078;BME280;26823;42.662;23.352;2023-05-13T08:46:17;95331.47;;;14.20;50.16
41078;BME280;26823;42.662;23.352;2023-05-13T08:48:43;95351.44;;;14.34;50.85
41078;BME280;26823;42.662;23.352;2023-05-13T08:51:09;95337.94;;;14.00;51.65
41078;BME280;26823;42.662;23.352;2023-05-13T08:53:35;95341.84;;;13.89;52.57
41078;BME280;26823;42.662;23.352;2023-05-13T08:56:04;95351.84;;;14.23;51.43
41078;BME280;26823;42.662;23.352;2023-05-13T08:58:30;95344.69;;;14.02;51.63
41078;BME280;26823;42.662;23.352;2023-05-13T09:00:56;95351.47;;;14.54;51.04
41078;BME280;26823;42.662;23.352;2023-05-13T09:03:23;95344.59;;;15.43;51.74
41078;BME280;26823;42.662;23.352;2023-05-13T09:05:49;95333.63;;;15.29;49.95
41078;BME280;26823;42.662;23.352;2023-05-13T09:08:15;95306.38;;;15.10;49.38
41078;BME280;26823;42.662;23.352;2023-05-13T09:10:41;95319.66;;;14.97;49.56
41078;BME280;26823;42.662;23.352;2023-05-13T09:13:06;95321.59;;;15.30;49.48
41078;BME280;26823;42.662;23.352;2023-05-13T09:15:32;95319.00;;;15.91;52.20
41078;BME280;26823;42.662;23.352;2023-05-13T09:18:02;95317.94;;;16.61;50.01
41078;BME280;26823;42.662;23.352;2023-05-13T09:20:29;95319.94;;;16.98;49.05
41078;BME280;26823;42.662;23.352;2023-05-13T09:23:02;95321.78;;;17.25;46.42
41078;BME280;26823;42.662;23.352;2023-05-13T09:25:28;95320.53;;;16.80;47.80
41078;BME280;26823;42.662;23.352;2023-05-13T09:27:56;95331.00;;;16.37;47.65
41078;BME280;26823;42.662;23.352;2023-05-13T09:30:27;95326.75;;;16.58;48.37
41078;BME280;26823;42.662;23.352;2023-05-13T09:35:31;95327.53;;;16.45;48.53
41078;BME280;26823;42.662;23.352;2023-05-13T09:37:57;95314.59;;;16.65;48.59
41078;BME280;26823;42.662;23.352;2023-05-13T09:40:22;95321.03;;;17.10;48.91
41078;BME280;26823;42.662;23.352;2023-05-13T09:42:48;95327.09;;;17.07;48.04
41078;BME280;26823;42.662;23.352;2023-05-13T09:45:15;95316.44;;;17.20;47.29
41078;BME280;26823;42.662;23.352;2023-05-13T09:47:41;95315.03;;;17.08;47.78
41078;BME280;26823;42.662;23.352;2023-05-13T09:50:08;95310.06;;;17.24;46.34
41078;BME280;26823;42.662;23.352;2023-05-13T09:52:35;95286.75;;;17.27;46.44
41078;BME280;26823;42.662;23.352;2023-05-13T09:55:02;95286.88;;;17.67;46.58
41078;BME280;26823;42.662;23.352;2023-05-13T09:57:31;95311.97;;;17.69;45.80
41078;BME280;26823;42.662;23.352;2023-05-13T09:59:57;95297.56;;;17.55;46.52
41078;BME280;26823;42.662;23.352;2023-05-13T10:02:24;95300.97;;;17.83;46.80
41078;BME280;26823;42.662;23.352;2023-05-13T10:04:50;95300.91;;;18.29;46.42
41078;BME280;26823;42.662;23.352;2023-05-13T10:07:16;95305.31;;;18.47;45.60
41078;BME280;26823;42.662;23.352;2023-05-13T10:09:45;95304.13;;;18.31;45.58
41078;BME280;26823;42.662;23.352;2023-05-13T10:12:13;95305.25;;;18.30;45.23
41078;BME280;26823;42.662;23.352;2023-05-13T10:14:39;95297.94;;;18.56;45.06
41078;BME280;26823;42.662;23.352;2023-05-13T10:17:06;95302.16;;;18.71;44.23
41078;BME280;26823;42.662;23.352;2023-05-13T10:19:33;95290.75;;;18.29;44.89
41078;BME280;26823;42.662;23.352;2023-05-13T10:22:00;95300.28;;;18.00;45.30
41078;BME280;26823;42.662;23.352;2023-05-13T10:24:25;95304.66;;;17.79;45.75
41078;BME280;26823;42.662;23.352;2023-05-13T10:26:53;95297.25;;;18.02;45.28
41078;BME280;26823;42.662;23.352;2023-05-13T10:29:21;95291.75;;;18.33;45.42
41078;BME280;26823;42.662;23.352;2023-05-13T10:31:48;95276.00;;;18.07;46.08
41078;BME280;26823;42.662;23.352;2023-05-13T10:34:15;95300.53;;;18.70;44.98
41078;BME280;26823;42.662;23.352;2023-05-13T10:45:00;95291.19;;;17.59;47.02
41078;BME280;26823;42.662;23.352;2023-05-13T10:47:25;95293.03;;;17.50;47.87
41078;BME280;26823;42.662;23.352;2023-05-13T10:49:52;95304.19;;;17.85;48.29
41078;BME280;26823;42.662;23.352;2023-05-13T10:52:18;95306.94;;;17.63;48.51
41078;BME280;26823;42.662;23.352;2023-05-13T10:54:58;95300.31;;;17.55;49.85
41078;BME280;26823;42.662;23.352;2023-05-13T10:57:35;95304.78;;;17.51;50.05
41078;BME280;26823;42.662;23.352;2023-05-13T11:00:16;95296.97;;;17.21;50.84
41078;BME280;26823;42.662;23.352;2023-05-13T11:02:43;95303.75;;;17.24;50.73
41078;BME280;26823;42.662;23.352;2023-05-13T11:05:18;95306.63;;;17.19;51.10
41078;BME280;26823;42.662;23.352;2023-05-13T11:07:56;95288.72;;;16.62;52.82
41078;BME280;26823;42.662;23.352;2023-05-13T11:10:25;95294.66;;;16.64;51.88
41078;BME280;26823;42.662;23.352;2023-05-13T11:15:44;95291.63;;;17.16;51.81
41078;BME280;26823;42.662;23.352;2023-05-13T11:18:13;95294.13;;;17.26;49.86
41078;BME280;26823;42.662;23.352;2023-05-13T11:20:39;95291.13;;;17.51;50.24
41078;BME280;26823;42.662;23.352;2023-05-13T11:23:05;95289.06;;;17.56;49.76
41078;BME280;26823;42.662;23.352;2023-05-13T11:25:32;95269.28;;;17.91;47.76
41078;BME280;26823;42.662;23.352;2023-05-13T11:27:58;95284.75;;;18.18;47.29
41078;BME280;26823;42.662;23.352;2023-05-13T11:30:26;95267.59;;;18.44;48.56
41078;BME280;26823;42.662;23.352;2023-05-13T11:32:54;95269.91;;;18.68;48.13
41078;BME280;26823;42.662;23.352;2023-05-13T11:35:21;95263.47;;;18.64;46.60
41078;BME280;26823;42.662;23.352;2023-05-13T11:37:47;95256.94;;;18.34;47.07
41078;BME280;26823;42.662;23.352;2023-05-13T11:40:25;95256.00;;;18.38;46.76
41078;BME280;26823;42.662;23.352;2023-05-13T11:42:51;95256.00;;;18.38;46.50
41078;BME280;26823;42.662;23.352;2023-05-13T11:45:17;95254.47;;;18.15;46.56
41078;BME280;26823;42.662;23.352;2023-05-13T11:47:43;95243.66;;;18.67;45.26
41078;BME280;26823;42.662;23.352;2023-05-13T11:50:25;95247.34;;;18.54;45.07
41078;BME280;26823;42.662;23.352;2023-05-13T11:52:53;95240.91;;;18.09;45.83
41078;BME280;26823;42.662;23.352;2023-05-13T11:55:30;95247.91;;;17.93;46.55
41078;BME280;26823;42.662;23.352;2023-05-13T11:57:56;95249.84;;;18.33;45.55
41078;BME280;26823;42.662;23.352;2023-05-13T12:00:27;95239.84;;;18.95;45.19
41078;BME280;26823;42.662;23.352;2023-05-13T12:02:53;95233.22;;;19.31;44.50
41078;BME280;26823;42.662;23.352;2023-05-13T12:05:18;95243.38;;;19.39;44.80
41078;BME280;26823;42.662;23.352;2023-05-13T12:07:44;95231.78;;;19.07;43.11
41078;BME280;26823;42.662;23.352;2023-05-13T12:10:10;95242.22;;;19.66;42.73
41078;BME280;26823;42.662;23.352;2023-05-13T12:12:44;95226.94;;;18.86;43.98
41078;BME280;26823;42.662;23.352;2023-05-13T12:15:16;95222.72;;;18.80;43.96
41078;BME280;26823;42.662;23.352;2023-05-13T12:17:42;95229.53;;;18.25;44.77
41078;BME280;26823;42.662;23.352;2023-05-13T12:20:12;95224.97;;;18.78;44.63
41078;BME280;26823;42.662;23.352;2023-05-13T12:30:43;95231.53;;;18.42;44.59
41078;BME280;26823;42.662;23.352;2023-05-13T12:33:13;95227.75;;;19.04;43.66
41078;BME280;26823;42.662;23.352;2023-05-13T12:35:39;95221.63;;;19.25;43.79
41078;BME280;26823;42.662;23.352;2023-05-13T12:38:05;95221.94;;;19.06;43.10
41078;BME280;26823;42.662;23.352;2023-05-13T12:40:31;95214.84;;;19.05;42.60
41078;BME280;26823;42.662;23.352;2023-05-13T12:42:58;95228.84;;;19.47;41.77
41078;BME280;26823;42.662;23.352;2023-05-13T12:45:28;95204.00;;;19.52;42.54
41078;BME280;26823;42.662;23.352;2023-05-13T12:47:54;95203.06;;;19.96;42.63
41078;BME280;26823;42.662;23.352;2023-05-13T12:50:19;95199.34;;;20.00;42.63
41078;BME280;26823;42.662;23.352;2023-05-13T12:52:45;95215.88;;;19.83;42.65
41078;BME280;26823;42.662;23.352;2023-05-13T12:55:10;95200.84;;;19.06;41.45
41078;BME280;26823;42.662;23.352;2023-05-13T12:57:39;95207.13;;;19.16;41.34
41078;BME280;26823;42.662;23.352;2023-05-13T13:00:06;95215.16;;;19.38;42.88
41078;BME280;26823;42.662;23.352;2023-05-13T13:02:34;95185.84;;;19.04;43.14
41078;BME280;26823;42.662;23.352;2023-05-13T13:04:59;95200.03;;;19.06;43.68
41078;BME280;26823;42.662;23.352;2023-05-13T13:07:24;95200.97;;;19.19;42.59
41078;BME280;26823;42.662;23.352;2023-05-13T13:09:50;95210.81;;;18.85;42.06
41078;BME280;26823;42.662;23.352;2023-05-13T13:12:15;95182.63;;;18.00;43.87
41078;BME280;26823;42.662;23.352;2023-05-13T13:14:41;95184.53;;;18.66;43.78
41078;BME280;26823;42.662;23.352;2023-05-13T13:17:08;95187.06;;;18.45;42.49
41078;BME280;26823;42.662;23.352;2023-05-13T13:19:34;95189.84;;;18.63;42.80